Time;durP1;ratioP1;P1;durP2;ratioP2;P2;SDS_P1;SDS_P2;PMS_P1;PMS_P2;Temp;Humidity;BMP_temperature;BMP_pressure;BME280_temperature;BME280_humidity;BME280_pressure;Samples;Min_cycle;Max_cycle;Signal;HPM_P1;HPM_P2
2022/01/30 00:00:33;;;;;;;23.15;11.13;;;;;;;-2.29;69.68;93791.19;5053646;28;20515;-36
2022/01/30 00:02:59;;;;;;;19.60;10.75;;;;;;;-2.44;70.42;93787.66;5035870;28;20075;-36
2022/01/30 00:05:25;;;;;;;19.25;11.07;;;;;;;-2.42;69.65;93791.41;5035404;28;20029;-36
2022/01/30 00:07:51;;;;;;;16.90;10.63;;;;;;;-2.67;70.69;93780.25;5035613;28;20039;-37
2022/01/30 00:10:16;;;;;;;20.10;11.48;;;;;;;-2.79;71.31;93791.97;5053364;28;20029;-37
2022/01/30 00:15:11;;;;;;;17.73;12.13;;;;;;;-3.04;71.69;93743.72;5033634;28;20026;-37
2022/01/30 00:17:43;;;;;;;19.92;10.85;;;;;;;-2.86;71.08;93770.69;5033095;28;20530;-37
2022/01/30 00:20:15;;;;;;;15.35;9.88;;;;;;;-2.90;71.31;93775.50;5033009;28;20029;-36
2022/01/30 00:22:49;;;;;;;22.50;11.63;;;;;;;-3.04;71.15;93770.72;5033498;28;20021;-36
2022/01/30 00:25:19;;;;;;;20.08;10.63;;;;;;;-3.38;70.86;93750.97;5035370;28;20029;-36
2022/01/30 00:27:50;;;;;;;24.95;12.27;;;;;;;-3.55;72.15;93751.78;5041657;28;20502;-36
2022/01/30 00:30:17;;;;;;;21.00;12.15;;;;;;;-3.39;72.13;93763.00;5043797;28;20390;-37
2022/01/30 00:32:44;;;;;;;21.35;12.00;;;;;;;-3.47;72.45;93753.72;5041151;28;20534;-36
2022/01/30 00:35:10;;;;;;;23.10;11.35;;;;;;;-3.34;71.42;93745.44;5043280;28;20048;-36
2022/01/30 00:37:40;;;;;;;21.88;12.07;;;;;;;-3.44;70.82;93742.00;5040536;28;20518;-36
2022/01/30 00:40:07;;;;;;;28.25;12.93;;;;;;;-3.76;72.78;93752.66;5042218;28;20029;-36
2022/01/30 00:42:32;;;;;;;16.45;9.88;;;;;;;-3.58;71.51;93745.31;5049966;28;20096;-36
2022/01/30 00:44:58;;;;;;;22.27;12.65;;;;;;;-3.61;70.93;93726.56;5052665;28;20526;-36
2022/01/30 00:47:24;;;;;;;20.00;13.23;;;;;;;-3.68;71.02;93724.19;5052488;28;20032;-36
2022/01/30 00:49:49;;;;;;;23.25;11.25;;;;;;;-3.88;72.21;93736.16;5052525;28;20017;-36
2022/01/30 00:52:16;;;;;;;18.88;11.15;;;;;;;-3.89;71.64;93728.53;5052629;28;20074;-37
2022/01/30 00:54:45;;;;;;;17.60;9.55;;;;;;;-3.77;71.30;93726.88;5035024;28;20029;-36
2022/01/30 00:57:10;;;;;;;18.80;11.07;;;;;;;-3.77;71.21;93730.34;5052753;28;20020;-37
2022/01/30 00:59:36;;;;;;;26.58;13.18;;;;;;;-3.99;72.77;93738.59;5052460;28;20478;-36
2022/01/30 01:02:03;;;;;;;33.03;17.80;;;;;;;-3.81;71.56;93721.63;5052370;28;20465;-37
2022/01/30 01:04:28;;;;;;;36.55;18.25;;;;;;;-3.86;72.01;93714.16;5052343;28;20476;-37
2022/01/30 01:06:54;;;;;;;40.47;21.30;;;;;;;-3.72;71.37;93700.03;5052128;28;20109;-36
2022/01/30 01:09:23;;;;;;;34.92;19.38;;;;;;;-3.57;70.47;93703.63;5034477;28;20021;-36
2022/01/30 01:25:13;;;;;;;26.92;14.93;;;;;;;-4.01;71.66;93662.03;5032309;28;20102;-37
2022/01/30 01:27:39;;;;;;;24.35;11.90;;;;;;;-4.36;73.16;93645.41;5031878;28;20025;-36
2022/01/30 01:30:05;;;;;;;39.72;23.05;;;;;;;-3.93;73.03;93672.06;5031693;28;20025;-36
2022/01/30 01:32:31;;;;;;;64.20;28.05;;;;;;;-3.76;71.13;93669.78;5031806;28;20021;-36
2022/01/30 01:34:56;;;;;;;61.75;31.40;;;;;;;-3.68;70.94;93670.25;5031712;28;20032;-36
2022/01/30 01:37:22;;;;;;;50.17;25.08;;;;;;;-3.65;70.73;93664.69;5031973;28;20415;-36
2022/01/30 01:39:48;;;;;;;49.15;24.17;;;;;;;-3.78;70.81;93666.03;5031596;28;20480;-36
2022/01/30 01:42:15;;;;;;;41.13;21.33;;;;;;;-4.31;73.06;93665.63;5031452;28;20025;-35
2022/01/30 01:44:45;;;;;;;46.40;22.58;;;;;;;-4.13;73.52;93673.69;5031912;28;20511;-36
2022/01/30 01:47:12;;;;;;;44.70;24.90;;;;;;;-4.23;73.52;93654.09;5031594;28;20057;-36
2022/01/30 01:49:39;;;;;;;38.95;20.73;;;;;;;-4.55;73.87;93656.59;5031699;28;20100;-36
2022/01/30 01:54:43;;;;;;;46.70;28.20;;;;;;;-4.58;74.14;93617.06;5035475;28;20028;-35
2022/01/30 01:57:09;;;;;;;45.35;23.27;;;;;;;-4.36;74.15;93639.25;5051260;28;20107;-35
2022/01/30 01:59:34;;;;;;;40.08;21.65;;;;;;;-4.15;73.85;93627.56;5051022;28;20104;-36
2022/01/30 02:02:01;;;;;;;44.35;23.90;;;;;;;-4.35;74.71;93635.38;5051283;28;20044;-36
2022/01/30 02:04:28;;;;;;;43.70;22.90;;;;;;;-4.42;74.74;93614.09;5051400;28;20025;-36
2022/01/30 02:07:04;;;;;;;44.28;23.05;;;;;;;-4.08;73.39;93608.41;5051328;28;20025;-35
2022/01/30 02:09:32;;;;;;;34.88;18.20;;;;;;;-3.80;72.17;93615.25;5051132;28;20048;-37
2022/01/30 02:11:59;;;;;;;38.05;20.65;;;;;;;-3.77;71.88;93610.91;5042122;28;20060;-36
2022/01/30 02:14:38;;;;;;;32.00;15.88;;;;;;;-3.78;72.80;93601.31;5030957;28;20040;-37
2022/01/30 02:27:41;;;;;;;51.95;27.40;;;;;;;-4.21;71.69;93576.22;5030538;28;20025;-36
2022/01/30 02:30:17;;;;;;;45.03;25.95;;;;;;;-4.37;72.50;93567.69;5030765;28;20021;-36
2022/01/30 02:32:43;;;;;;;43.90;23.85;;;;;;;-4.26;72.69;93578.75;5031034;28;20445;-38
2022/01/30 02:35:09;;;;;;;44.30;22.77;;;;;;;-4.21;73.25;93580.84;5030664;28;20079;-37
2022/01/30 02:37:35;;;;;;;46.35;23.17;;;;;;;-4.21;73.18;93581.59;5030780;28;20100;-38
2022/01/30 02:40:04;;;;;;;41.08;21.55;;;;;;;-4.35;71.43;93547.16;5030384;28;20522;-37
2022/01/30 02:42:32;;;;;;;45.08;24.40;;;;;;;-4.56;72.03;93582.34;5030560;28;20499;-37
2022/01/30 02:45:01;;;;;;;45.22;22.55;;;;;;;-4.37;71.72;93581.16;5030550;28;20502;-37
2022/01/30 02:50:21;;;;;;;52.50;29.27;;;;;;;-4.27;70.49;93578.03;5030589;28;20025;-37
2022/01/30 02:52:56;;;;;;;51.65;28.45;;;;;;;-4.31;71.02;93574.72;5030345;28;20108;-37
2022/01/30 02:55:22;;;;;;;55.38;29.00;;;;;;;-4.49;70.50;93555.13;5030612;28;20109;-37
2022/01/30 02:57:48;;;;;;;52.22;27.35;;;;;;;-4.61;70.62;93562.16;5030274;28;20032;-37
2022/01/30 03:00:14;;;;;;;49.05;24.27;;;;;;;-4.56;70.38;93556.16;5030372;28;20025;-37
2022/01/30 03:02:40;;;;;;;52.63;26.38;;;;;;;-4.53;69.99;93549.91;5030511;28;20017;-37
2022/01/30 03:05:05;;;;;;;55.90;28.52;;;;;;;-4.82;69.71;93523.41;5030251;28;20021;-37
2022/01/30 03:07:31;;;;;;;45.28;22.85;;;;;;;-4.81;71.00;93540.31;5030453;28;20029;-37
2022/01/30 03:09:56;;;;;;;60.10;27.55;;;;;;;-4.88;71.20;93554.06;5030344;28;20115;-37
2022/01/30 03:12:22;;;;;;;50.42;26.42;;;;;;;-4.93;71.35;93550.03;5029805;28;20050;-37
2022/01/30 03:14:48;;;;;;;56.67;27.15;;;;;;;-5.06;70.21;93546.72;5030342;28;20032;-36
2022/01/30 03:17:13;;;;;;;52.72;26.48;;;;;;;-4.92;68.92;93551.53;5030310;28;20030;-39
2022/01/30 03:19:39;;;;;;;52.45;25.92;;;;;;;-4.90;69.54;93543.75;5030167;28;20112;-36
2022/01/30 03:22:04;;;;;;;48.78;26.50;;;;;;;-5.10;69.63;93543.41;5029447;28;20531;-35
2022/01/30 03:24:37;;;;;;;47.05;24.42;;;;;;;-5.58;70.56;93539.56;5029860;28;20087;-37
2022/01/30 03:27:08;;;;;;;38.88;20.98;;;;;;;-5.68;72.22;93529.22;5029880;28;20051;-36
2022/01/30 03:29:34;;;;;;;43.97;23.45;;;;;;;-5.61;71.29;93524.31;5030081;28;20102;-36
2022/01/30 03:32:00;;;;;;;44.03;20.85;;;;;;;-5.42;71.15;93514.34;5029689;28;20099;-36
2022/01/30 03:34:26;;;;;;;49.80;24.08;;;;;;;-5.61;71.85;93512.81;5030115;28;20045;-37
2022/01/30 03:36:52;;;;;;;56.50;28.50;;;;;;;-5.87;70.73;93501.56;5029763;28;20591;-36
2022/01/30 03:39:18;;;;;;;73.82;33.90;;;;;;;-5.66;72.14;93516.84;5029683;28;20017;-36
2022/01/30 03:41:44;;;;;;;83.05;35.67;;;;;;;-5.65;70.39;93517.59;5029746;28;20064;-36
2022/01/30 03:44:09;;;;;;;60.72;28.92;;;;;;;-5.77;69.99;93518.44;5029523;28;20036;-36
2022/01/30 03:46:35;;;;;;;44.85;21.85;;;;;;;-6.01;70.58;93520.91;5029735;28;20072;-36
2022/01/30 03:49:00;;;;;;;42.05;20.98;;;;;;;-5.79;69.63;93518.13;5029672;28;20024;-36
2022/01/30 03:51:26;;;;;;;44.63;21.10;;;;;;;-5.86;70.06;93535.31;5029700;28;20025;-36
2022/01/30 03:53:51;;;;;;;34.45;18.92;;;;;;;-5.76;69.78;93531.41;5029617;28;20049;-36
2022/01/30 03:56:17;;;;;;;42.40;21.27;;;;;;;-6.21;70.49;93525.88;5029840;28;20025;-36
2022/01/30 03:58:42;;;;;;;43.25;19.45;;;;;;;-6.32;71.29;93538.94;5029629;28;20047;-36
2022/01/30 04:01:08;;;;;;;26.50;12.57;;;;;;;-6.50;70.72;93544.22;5029823;28;20029;-36
2022/01/30 04:03:36;;;;;;;33.33;16.92;;;;;;;-6.51;70.75;93535.41;5029547;28;20025;-36
2022/01/30 04:06:03;;;;;;;33.38;16.15;;;;;;;-6.55;71.39;93529.41;5029646;28;20105;-36
2022/01/30 04:08:28;;;;;;;33.78;16.60;;;;;;;-6.56;72.00;93522.53;5011965;28;20429;-36
2022/01/30 04:10:54;;;;;;;31.08;14.10;;;;;;;-6.48;70.96;93533.78;5029388;28;20050;-36
2022/01/30 04:13:20;;;;;;;29.02;14.05;;;;;;;-6.46;70.42;93534.09;5049320;28;20025;-36
2022/01/30 04:15:45;;;;;;;36.42;17.58;;;;;;;-6.35;69.82;93529.09;5050280;28;20421;-36
2022/01/30 04:18:11;;;;;;;32.03;16.58;;;;;;;-6.24;70.10;93524.06;5052975;28;20024;-36
2022/01/30 04:20:37;;;;;;;25.75;13.30;;;;;;;-6.26;69.82;93527.19;5052993;28;20111;-36
2022/01/30 04:23:03;;;;;;;28.50;15.45;;;;;;;-6.42;69.76;93540.06;5053033;28;20036;-36
2022/01/30 04:25:28;;;;;;;29.00;15.23;;;;;;;-6.57;69.21;93534.47;5052904;28;20071;-36
2022/01/30 04:27:54;;;;;;;15.98;9.25;;;;;;;-6.64;69.91;93523.22;5033788;28;20041;-36
2022/01/30 04:30:21;;;;;;;19.60;9.32;;;;;;;-6.52;69.53;93506.31;5032892;28;20491;-36
2022/01/30 04:32:47;;;;;;;14.45;8.45;;;;;;;-6.65;69.68;93509.06;5033220;28;20033;-36
2022/01/30 04:35:27;;;;;;;25.30;12.77;;;;;;;-6.73;69.73;93504.34;5035544;28;20056;-36
2022/01/30 04:40:45;;;;;;;15.20;7.50;;;;;;;-7.12;70.02;93495.72;5032629;28;20029;-36
2022/01/30 05:04:19;;;;;;;22.35;11.95;;;;;;;-7.03;70.93;93463.59;5032622;28;20483;-36
2022/01/30 05:07:26;;;;;;;22.05;10.80;;;;;;;-7.10;69.22;93457.72;5032600;28;20486;-36
2022/01/30 05:09:40;;;;;;;43.25;21.75;;;;;;;-7.29;70.29;93466.81;5032208;28;20029;-36
2022/01/30 05:12:06;;;;;;;48.90;25.08;;;;;;;-7.24;70.72;93464.34;5041463;28;20056;-37
2022/01/30 05:14:35;;;;;;;44.53;21.77;;;;;;;-7.19;70.37;93450.34;5052064;28;20025;-36
2022/01/30 05:17:01;;;;;;;36.35;18.08;;;;;;;-7.16;70.70;93444.13;5052118;28;20029;-37
2022/01/30 05:19:27;;;;;;;73.50;33.00;;;;;;;-7.19;71.62;93452.31;5051955;28;20113;-36
2022/01/30 05:21:53;;;;;;;90.93;43.13;;;;;;;-7.16;72.15;93424.59;5051973;28;20490;-37
2022/01/30 05:24:19;;;;;;;86.13;26.73;;;;;;;-7.15;72.46;93393.91;5031890;28;20538;-36
2022/01/30 05:26:45;;;;;;;39.78;22.23;;;;;;;-7.07;72.78;93408.56;5030967;28;20057;-36
2022/01/30 05:29:11;;;;;;;29.42;17.40;;;;;;;-6.87;72.44;93409.00;5031433;28;20029;-36
2022/01/30 05:31:36;;;;;;;40.92;19.83;;;;;;;-6.96;71.66;93401.66;5032070;28;20037;-36
2022/01/30 05:34:02;;;;;;;39.05;20.23;;;;;;;-6.83;72.10;93401.56;5031860;28;20029;-36
2022/01/30 05:36:30;;;;;;;47.85;21.70;;;;;;;-6.81;72.60;93383.09;5014076;28;20029;-36
2022/01/30 05:38:56;;;;;;;63.33;27.42;;;;;;;-6.75;71.38;93386.69;5031700;28;20497;-36
2022/01/30 05:41:21;;;;;;;58.65;25.08;;;;;;;-6.77;70.23;93394.44;5031614;28;20082;-36
2022/01/30 05:43:51;;;;;;;48.67;22.33;;;;;;;-6.69;69.38;93397.63;5031562;28;20025;-36
2022/01/30 05:46:29;;;;;;;47.30;21.50;;;;;;;-6.68;70.19;93429.38;5031490;28;20087;-36
2022/01/30 05:48:55;;;;;;;58.13;25.65;;;;;;;-6.66;69.82;93421.63;5031468;28;20091;-37
2022/01/30 05:51:20;;;;;;;50.30;22.98;;;;;;;-6.85;69.29;93393.22;5040895;28;20024;-36
2022/01/30 05:53:46;;;;;;;51.22;25.40;;;;;;;-6.80;70.01;93432.91;5051609;28;20032;-37
2022/01/30 05:56:12;;;;;;;48.83;24.73;;;;;;;-6.69;68.59;93441.28;5051075;28;20040;-37
2022/01/30 05:58:38;;;;;;;53.03;25.63;;;;;;;-7.11;69.59;93416.75;5051508;28;20025;-36
2022/01/30 06:01:04;;;;;;;44.75;24.27;;;;;;;-6.76;69.15;93438.88;5046477;28;20541;-37
2022/01/30 06:03:29;;;;;;;58.17;26.98;;;;;;;-7.18;70.24;93437.69;5031282;28;20034;-36
2022/01/30 06:05:56;;;;;;;56.88;27.55;;;;;;;-7.24;71.62;93418.00;5031459;28;20029;-35
2022/01/30 06:11:13;;;;;;;45.10;23.27;;;;;;;-7.14;72.49;93416.88;5030847;28;20052;-35
2022/01/30 06:13:40;;;;;;;50.60;20.48;;;;;;;-7.02;72.71;93408.75;5050840;28;20521;-35
2022/01/30 06:16:06;;;;;;;52.00;23.85;;;;;;;-6.83;73.37;93414.22;5051013;28;20040;-36
2022/01/30 06:18:32;;;;;;;49.63;28.10;;;;;;;-6.61;72.72;93410.34;5047758;28;20061;-36
2022/01/30 06:20:57;;;;;;;48.22;23.83;;;;;;;-6.51;72.90;93389.63;5031119;28;20064;-36
2022/01/30 06:23:26;;;;;;;93.88;42.10;;;;;;;-6.33;71.54;93403.91;5030775;28;20025;-36
2022/01/30 06:25:55;;;;;;;102.43;46.70;;;;;;;-6.11;70.69;93406.50;5030616;28;20108;-36
2022/01/30 06:28:20;;;;;;;;;;;;;;;-5.92;69.59;93407.28;5013282;28;20541;-36
2022/01/30 06:30:45;;;;;;;112.22;47.75;;;;;;;-5.68;68.61;93387.47;5030970;28;19948;-37
2022/01/30 06:33:11;;;;;;;86.40;38.03;;;;;;;-5.60;68.19;93385.97;5030610;28;20530;-36
2022/01/30 06:35:36;;;;;;;74.25;36.58;;;;;;;-5.55;69.71;93393.44;5030843;28;20021;-36
2022/01/30 06:38:03;;;;;;;92.90;42.20;;;;;;;-5.43;70.29;93411.38;5030164;28;20561;-36
2022/01/30 06:40:28;;;;;;;135.85;61.55;;;;;;;-5.33;69.48;93404.06;5030675;28;20028;-36
2022/01/30 06:42:54;;;;;;;111.75;53.33;;;;;;;-5.19;69.24;93408.84;5030455;28;20449;-36
2022/01/30 06:45:20;;;;;;;103.82;47.75;;;;;;;-5.18;68.63;93406.91;5030791;28;20136;-37
2022/01/30 06:47:46;;;;;;;126.43;55.92;;;;;;;-5.01;68.67;93391.94;5030707;28;20052;-37
2022/01/30 06:50:12;;;;;;;129.13;56.85;;;;;;;-4.99;68.74;93405.69;5030148;28;20550;-37
2022/01/30 06:52:38;;;;;;;173.23;75.07;;;;;;;-5.16;70.00;93386.41;5030301;28;20036;-37
2022/01/30 06:55:05;;;;;;;101.20;51.05;;;;;;;-5.40;70.22;93394.34;5030316;28;20128;-37
2022/01/30 06:57:30;;;;;;;111.35;59.15;;;;;;;-5.27;70.56;93385.38;5030336;28;20029;-37
2022/01/30 06:59:56;;;;;;;103.28;54.97;;;;;;;-5.21;71.56;93378.94;5030393;28;20033;-37
2022/01/30 07:02:22;;;;;;;99.18;51.40;;;;;;;-4.90;72.10;93379.50;5030379;28;20138;-38
2022/01/30 07:04:48;;;;;;;92.50;49.35;;;;;;;-4.60;72.03;93383.16;5030126;28;20052;-37
2022/01/30 07:07:14;;;;;;;72.60;35.35;;;;;;;-4.36;72.13;93388.63;5030053;28;20025;-37
2022/01/30 07:09:39;;;;;;;57.83;30.48;;;;;;;-4.23;70.56;93375.72;5012434;28;20175;-37
2022/01/30 07:12:05;;;;;;;107.72;47.80;;;;;;;-4.15;70.70;93366.06;5029642;28;20049;-37
2022/01/30 07:14:31;;;;;;;45.97;26.45;;;;;;;-3.94;70.26;93365.06;5030868;28;20029;-36
2022/01/30 07:16:56;;;;;;;50.40;27.55;;;;;;;-3.72;70.07;93360.16;5049930;28;20021;-38
2022/01/30 07:19:22;;;;;;;36.35;20.50;;;;;;;-3.42;69.57;93356.34;5050126;28;20024;-37
2022/01/30 07:21:47;;;;;;;34.80;21.08;;;;;;;-3.14;69.50;93359.59;5049846;28;20029;-38
2022/01/30 07:24:13;;;;;;;35.58;20.17;;;;;;;-3.06;67.98;93366.09;5049735;28;20033;-37
2022/01/30 07:26:39;;;;;;;36.40;20.45;;;;;;;-2.93;67.99;93371.25;5043710;28;20029;-37
2022/01/30 07:29:04;;;;;;;27.38;15.40;;;;;;;-2.91;67.07;93374.97;5030278;28;20018;-37
2022/01/30 07:31:33;;;;;;;22.73;13.82;;;;;;;-2.72;65.06;93364.72;5030133;28;20061;-38
2022/01/30 07:34:00;;;;;;;26.13;16.38;;;;;;;-2.52;66.39;93368.28;5029769;28;20035;-37
2022/01/30 07:36:27;;;;;;;29.83;17.08;;;;;;;-2.44;66.70;93372.09;5029878;28;20057;-37
2022/01/30 07:38:53;;;;;;;50.75;28.30;;;;;;;-2.55;66.43;93369.19;5012527;28;20106;-37
2022/01/30 07:41:20;;;;;;;225.25;87.28;;;;;;;-2.31;66.28;93377.94;5039056;28;20131;-37
2022/01/30 07:43:45;;;;;;;167.40;73.13;;;;;;;-2.23;66.37;93381.00;5029830;28;20043;-37
2022/01/30 07:46:11;;;;;;;151.93;70.55;;;;;;;-2.12;65.98;93367.66;5047394;28;20032;-37
2022/01/30 07:48:37;;;;;;;143.35;70.85;;;;;;;-1.98;65.64;93382.38;5046129;28;20029;-37
2022/01/30 07:51:02;;;;;;;158.70;74.72;;;;;;;-1.93;65.93;93376.31;5048976;28;20097;-37
2022/01/30 07:53:28;;;;;;;100.30;45.70;;;;;;;-1.94;64.97;93374.81;5051389;28;20094;-37
2022/01/30 07:55:54;;;;;;;86.90;43.15;;;;;;;-1.84;64.86;93373.50;5051338;28;20112;-37
2022/01/30 07:58:20;;;;;;;66.35;35.35;;;;;;;-2.06;65.66;93360.41;5045258;28;20041;-37
2022/01/30 08:00:45;;;;;;;59.80;33.05;;;;;;;-2.24;66.75;93365.25;5051248;28;20545;-37
2022/01/30 08:03:11;;;;;;;67.90;34.15;;;;;;;-1.96;67.45;93364.47;5033282;28;20040;-38
2022/01/30 08:05:38;;;;;;;50.22;28.63;;;;;;;-2.30;67.07;93357.78;5050787;28;20039;-38
2022/01/30 08:08:04;;;;;;;22.65;13.98;;;;;;;-2.07;66.36;93355.44;5050841;28;20490;-38
2022/01/30 08:10:30;;;;;;;21.30;12.88;;;;;;;-1.54;65.62;93366.75;5050693;28;20025;-38
2022/01/30 08:12:55;;;;;;;16.23;11.43;;;;;;;-0.91;63.28;93362.31;5048313;28;20044;-37
2022/01/30 08:15:21;;;;;;;23.23;13.23;;;;;;;-0.28;60.11;93336.75;5050828;28;20084;-37
2022/01/30 08:17:48;;;;;;;32.90;19.10;;;;;;;-0.18;60.17;93332.66;5050933;28;20031;-38
2022/01/30 08:20:13;;;;;;;19.77;12.00;;;;;;;0.11;58.73;93320.00;5050990;28;20060;-38
2022/01/30 08:22:50;;;;;;;15.43;9.57;;;;;;;1.84;57.10;93342.50;5050971;28;20055;-38
2022/01/30 08:25:17;;;;;;;16.13;8.80;;;;;;;3.39;51.27;93333.91;5051262;28;20029;-38
2022/01/30 08:27:43;;;;;;;14.80;8.52;;;;;;;4.12;48.64;93326.66;5050958;28;20045;-38
2022/01/30 08:30:09;;;;;;;8.95;6.20;;;;;;;3.51;47.11;93337.31;5050273;28;20047;-39
2022/01/30 08:32:42;;;;;;;23.30;14.73;;;;;;;3.42;48.84;93334.88;5050309;28;20024;-38
2022/01/30 08:35:09;;;;;;;16.45;11.43;;;;;;;4.61;46.12;93322.00;5050392;28;20104;-38
2022/01/30 08:37:38;;;;;;;25.90;13.18;;;;;;;5.06;45.82;93312.03;5049728;28;20506;-39
2022/01/30 08:40:12;;;;;;;32.58;20.35;;;;;;;6.58;42.98;93318.94;5050373;28;20033;-39
2022/01/30 08:42:37;;;;;;;24.45;15.93;;;;;;;8.44;39.10;93332.50;5049181;28;20052;-38
2022/01/30 08:45:04;;;;;;;17.00;10.90;;;;;;;9.38;35.98;93321.75;5048909;28;20392;-39
2022/01/30 08:47:30;;;;;;;13.63;9.45;;;;;;;10.76;33.63;93325.78;5048249;28;20055;-40
2022/01/30 08:49:55;;;;;;;17.63;12.13;;;;;;;10.02;31.71;93338.91;5048253;28;20530;-38
2022/01/30 08:52:21;;;;;;;17.15;11.75;;;;;;;9.46;34.06;93341.81;5049236;28;20442;-39
2022/01/30 08:54:49;;;;;;;16.05;10.82;;;;;;;10.00;31.95;93330.44;5048445;28;20035;-39
2022/01/30 08:57:14;;;;;;;10.25;7.38;;;;;;;9.82;32.29;93331.47;5049289;28;20041;-38
2022/01/30 08:59:40;;;;;;;21.45;13.57;;;;;;;10.19;32.76;93332.91;5049578;28;20052;-38
2022/01/30 09:02:06;;;;;;;13.68;7.75;;;;;;;10.74;31.36;93319.34;5049166;28;20029;-38
2022/01/30 09:04:31;;;;;;;16.75;10.10;;;;;;;10.28;31.68;93313.78;5032002;28;20118;-38
2022/01/30 09:06:57;;;;;;;14.82;9.43;;;;;;;10.27;30.15;93314.31;5049395;28;20477;-39
2022/01/30 09:09:22;;;;;;;14.07;7.28;;;;;;;9.77;30.50;93330.38;5035488;28;20726;-38
2022/01/30 09:11:48;;;;;;;10.00;7.28;;;;;;;9.96;32.94;93330.06;5049076;28;20099;-38
2022/01/30 09:14:15;;;;;;;10.25;9.00;;;;;;;10.81;31.40;93324.09;5049342;28;20033;-39
2022/01/30 09:16:40;;;;;;;8.50;6.47;;;;;;;11.36;29.73;93316.66;5048555;28;20021;-38
2022/01/30 09:19:06;;;;;;;9.40;6.57;;;;;;;11.78;30.00;93316.91;5048079;28;20028;-38
2022/01/30 09:21:33;;;;;;;8.32;6.70;;;;;;;12.59;28.13;93319.00;5048017;28;20049;-39
2022/01/30 09:23:58;;;;;;;8.88;6.50;;;;;;;12.53;27.51;93302.63;5048285;28;20029;-39
2022/01/30 09:26:24;;;;;;;5.85;4.90;;;;;;;12.37;26.41;93304.03;5048779;28;20033;-40
2022/01/30 09:28:49;;;;;;;6.65;5.00;;;;;;;13.54;26.96;93289.50;5048286;28;20028;-35
2022/01/30 09:31:15;;;;;;;6.30;5.18;;;;;;;13.95;23.53;93285.13;5048135;28;20114;-39
2022/01/30 09:33:41;;;;;;;13.57;4.97;;;;;;;12.11;25.37;93293.47;5047981;28;20167;-39
2022/01/30 09:36:07;;;;;;;6.75;4.88;;;;;;;11.75;25.58;93287.59;5048444;28;20045;-39
2022/01/30 09:38:33;;;;;;;11.02;4.93;;;;;;;10.90;27.21;93276.59;5049260;28;20067;-38
2022/01/30 09:40:59;;;;;;;23.75;16.45;;;;;;;11.69;27.31;93265.69;5049219;28;20505;-39
2022/01/30 09:43:27;;;;;;;11.65;7.95;;;;;;;12.40;24.93;93277.25;5049079;28;20447;-39
2022/01/30 09:45:53;;;;;;;9.60;7.07;;;;;;;12.99;24.33;93272.50;5047935;28;20036;-39
2022/01/30 09:48:19;;;;;;;6.10;4.70;;;;;;;13.09;23.69;93259.50;5045305;28;20439;-39
2022/01/30 09:50:45;;;;;;;11.38;7.15;;;;;;;13.37;23.85;93249.94;5046629;28;20032;-39
2022/01/30 09:53:11;;;;;;;13.25;7.95;;;;;;;13.36;24.11;93259.59;5047096;28;20032;-39
2022/01/30 09:55:36;;;;;;;15.80;8.30;;;;;;;12.31;25.82;93241.88;5048081;28;20480;-39
2022/01/30 09:58:02;;;;;;;7.65;5.85;;;;;;;12.74;25.36;93238.56;5047711;28;20040;-39
2022/01/30 10:00:27;;;;;;;8.75;4.90;;;;;;;12.79;24.75;93237.59;5047343;28;20029;-38
2022/01/30 10:02:53;;;;;;;20.27;14.25;;;;;;;13.24;25.20;93219.78;5048705;28;20064;-38
2022/01/30 10:05:19;;;;;;;17.20;10.13;;;;;;;14.27;24.66;93214.72;5048383;28;20042;-38
2022/01/30 10:07:55;;;;;;;14.95;11.13;;;;;;;14.33;23.26;93195.78;5048402;28;20029;-39
2022/01/30 10:10:24;;;;;;;12.63;8.50;;;;;;;14.86;23.41;93190.03;5048301;28;20032;-39
2022/01/30 10:13:10;;;;;;;7.43;4.88;;;;;;;14.32;21.62;93194.28;5032326;28;20033;-39
2022/01/30 10:16:04;;;;;;;13.25;8.57;;;;;;;14.44;23.50;93189.69;5029271;28;20570;-38
2022/01/30 10:18:33;;;;;;;12.68;6.53;;;;;;;15.10;22.36;93191.09;5025689;28;20041;-38
2022/01/30 10:21:02;;;;;;;7.45;5.32;;;;;;;15.42;22.06;93195.50;5028604;28;20025;-38
2022/01/30 10:23:34;;;;;;;6.88;5.07;;;;;;;15.97;20.64;93164.66;5028657;28;20683;-38
2022/01/30 10:26:01;;;;;;;5.40;4.65;;;;;;;15.42;21.63;93181.59;5028963;28;20422;-38
2022/01/30 10:28:29;;;;;;;11.15;7.68;;;;;;;15.46;20.89;93165.22;5028985;28;20029;-37
2022/01/30 10:30:59;;;;;;;9.15;6.97;;;;;;;15.13;21.21;93181.59;5028893;28;20109;-37
2022/01/30 10:33:47;;;;;;;10.20;6.85;;;;;;;14.12;20.89;93170.53;5029024;28;20029;-38
2022/01/30 10:36:22;;;;;;;18.42;12.85;;;;;;;12.87;23.66;93174.53;5028375;28;20029;-37
2022/01/30 10:38:58;;;;;;;10.25;7.25;;;;;;;13.22;24.24;93159.38;5035217;28;20074;-37
2022/01/30 10:41:34;;;;;;;10.80;6.03;;;;;;;13.52;23.45;93158.97;5047574;28;20041;-38
2022/01/30 10:44:02;;;;;;;9.77;6.78;;;;;;;13.03;24.86;93155.69;5047952;28;20032;-37
2022/01/30 10:46:39;;;;;;;11.73;7.68;;;;;;;13.06;25.07;93143.50;5046920;28;20056;-38
2022/01/30 10:49:16;;;;;;;12.50;9.02;;;;;;;12.38;25.40;93153.22;5048271;28;20090;-38
2022/01/30 10:51:55;;;;;;;9.32;6.60;;;;;;;11.61;27.27;93139.81;5048508;28;20044;-37
2022/01/30 10:54:25;;;;;;;7.45;5.00;;;;;;;12.42;25.03;93123.09;5048587;28;20033;-38
2022/01/30 10:57:08;;;;;;;18.90;10.35;;;;;;;13.21;24.34;93115.59;5048780;28;20041;-38
2022/01/30 10:59:35;;;;;;;12.18;8.32;;;;;;;13.84;22.94;93110.09;5046934;28;20434;-39
2022/01/30 11:02:35;;;;;;;12.85;6.40;;;;;;;14.75;22.17;93107.25;5027898;28;20144;-38
2022/01/30 11:05:06;;;;;;;8.77;5.15;;;;;;;14.77;20.36;93087.94;4995339;28;20045;-39
2022/01/30 11:07:35;;;;;;;8.20;4.65;;;;;;;14.33;20.33;93093.03;5032913;28;20096;-39
2022/01/30 11:10:11;;;;;;;5.13;3.45;;;;;;;14.72;21.09;93097.31;5027501;28;20022;-38
2022/01/30 11:12:56;;;;;;;5.78;3.72;;;;;;;14.30;20.64;93094.91;5041583;28;20056;-38
2022/01/30 11:15:54;;;;;;;4.60;3.30;;;;;;;15.02;21.44;93098.75;5048123;28;20064;-39
2022/01/30 11:18:09;;;;;;;7.10;4.82;;;;;;;16.00;20.33;93082.72;5042473;28;20138;-39
2022/01/30 11:20:34;;;;;;;5.97;4.35;;;;;;;15.79;20.09;93068.72;5032685;28;20068;-39
2022/01/30 11:23:03;;;;;;;15.40;13.85;;;;;;;15.94;18.32;93065.59;5043756;28;20040;-39
2022/01/30 11:25:35;;;;;;;14.20;9.65;;;;;;;16.51;21.79;93072.94;5047816;28;20515;-39
2022/01/30 11:28:04;;;;;;;2.80;2.08;;;;;;;13.83;19.79;93070.50;5030203;28;20045;-38
2022/01/30 11:30:32;;;;;;;5.40;4.10;;;;;;;13.20;21.61;93078.09;5035379;28;20449;-38
2022/01/30 11:32:59;;;;;;;3.40;2.13;;;;;;;11.16;24.25;93049.59;5046287;28;20772;-37
2022/01/30 11:35:25;;;;;;;2.88;1.83;;;;;;;10.97;23.31;93065.91;5046915;28;20040;-38
2022/01/30 11:37:51;;;;;;;3.58;1.58;;;;;;;10.50;23.66;93075.66;5047420;28;20041;-38
2022/01/30 11:40:19;;;;;;;3.35;2.13;;;;;;;10.07;25.17;93058.69;5047561;28;20029;-38
2022/01/30 11:42:48;;;;;;;5.68;2.45;;;;;;;9.73;27.16;93054.31;5047564;28;20033;-38
2022/01/30 11:45:24;;;;;;;4.45;1.92;;;;;;;9.55;26.02;93038.88;5047596;28;20094;-38
2022/01/30 11:47:52;;;;;;;3.05;2.00;;;;;;;9.75;25.44;93056.50;5046207;28;20029;-38
2022/01/30 11:50:25;;;;;;;5.32;2.00;;;;;;;9.62;26.71;93040.16;5037956;28;20043;-38
2022/01/30 11:52:51;;;;;;;2.25;1.80;;;;;;;9.43;26.69;93045.31;5046011;28;20063;-38
2022/01/30 11:55:49;;;;;;;1.63;1.45;;;;;;;9.06;27.46;93053.00;5028029;28;20351;-38
2022/01/30 11:58:30;;;;;;;23.88;3.50;;;;;;;8.81;30.13;93038.28;5041971;28;20024;-38
2022/01/30 12:01:06;;;;;;;1.92;1.77;;;;;;;9.09;29.21;93038.13;5039704;28;20037;-37
2022/01/30 12:03:36;;;;;;;1.67;1.40;;;;;;;9.69;29.00;93023.63;5018364;28;20041;-38
2022/01/30 12:06:20;;;;;;;1.80;1.45;;;;;;;10.20;27.02;93031.63;5041127;28;20044;-38
2022/01/30 12:08:50;;;;;;;2.58;1.58;;;;;;;9.78;27.63;93025.81;5047320;28;20166;-38
2022/01/30 12:11:34;;;;;;;3.65;1.55;;;;;;;8.88;29.49;93015.50;5036019;28;20683;-38
2022/01/30 12:14:03;;;;;;;2.03;1.60;;;;;;;8.81;29.34;93015.50;5025608;28;20035;-37
2022/01/30 12:17:04;;;;;;;2.50;1.67;;;;;;;8.46;30.34;93011.56;5026347;28;20392;-38
2022/01/30 12:19:42;;;;;;;1.52;1.38;;;;;;;7.62;31.20;93021.38;4924668;29;20050;-37
2022/01/30 12:22:16;;;;;;;5.88;2.03;;;;;;;7.28;31.62;93040.00;5033530;28;20131;-38
2022/01/30 12:24:48;;;;;;;2.50;1.55;;;;;;;7.24;31.66;93039.59;5046521;28;20513;-37